sensor_id;sensor_type;location;lat;lon;timestamp;pressure;altitude;pressure_sealevel;temperature;humidity
62055;BME280;48653;51.742;-1.256;2023-05-11T00:01:53;100792.19;;;12.63;50.36
62055;BME280;48653;51.742;-1.256;2023-05-11T00:04:18;100796.08;;;12.40;50.63
62055;BME280;48653;51.742;-1.256;2023-05-11T00:06:43;100796.28;;;12.57;49.97
62055;BME280;48653;51.742;-1.256;2023-05-11T00:09:09;100795.77;;;12.47;51.13
62055;BME280;48653;51.742;-1.256;2023-05-11T00:11:34;100794.24;;;12.23;51.20
62055;BME280;48653;51.742;-1.256;2023-05-11T00:14:00;100793.55;;;12.64;50.29
62055;BME280;48653;51.742;-1.256;2023-05-11T00:16:25;100793.24;;;12.19;51.19
62055;BME280;48653;51.742;-1.256;2023-05-11T00:18:50;100792.34;;;12.05;51.19
62055;BME280;48653;51.742;-1.256;2023-05-11T00:21:15;100794.24;;;12.37;50.91
62055;BME280;48653;51.742;-1.256;2023-05-11T00:23:40;100792.07;;;12.06;50.87
62055;BME280;48653;51.742;-1.256;2023-05-11T00:26:05;100791.76;;;12.15;51.19
62055;BME280;48653;51.742;-1.256;2023-05-11T00:28:31;100793.83;;;12.30;50.70
62055;BME280;48653;51.742;-1.256;2023-05-11T00:30:58;100788.89;;;11.79;51.05
62055;BME280;48653;51.742;-1.256;2023-05-11T00:33:22;100785.74;;;11.72;51.18
62055;BME280;48653;51.742;-1.256;2023-05-11T00:35:47;100786.19;;;11.66;51.47
62055;BME280;48653;51.742;-1.256;2023-05-11T00:38:13;100785.82;;;12.09;50.64
62055;BME280;48653;51.742;-1.256;2023-05-11T00:40:38;100783.84;;;11.89;51.11
62055;BME280;48653;51.742;-1.256;2023-05-11T00:43:03;100783.61;;;12.35;50.35
62055;BME280;48653;51.742;-1.256;2023-05-11T00:45:29;100780.82;;;12.12;50.64
62055;BME280;48653;51.742;-1.256;2023-05-11T00:47:54;100777.85;;;12.24;50.51
62055;BME280;48653;51.742;-1.256;2023-05-11T00:52:45;100778.68;;;12.19;51.75
62055;BME280;48653;51.742;-1.256;2023-05-11T00:57:36;100778.89;;;11.52;53.33
62055;BME280;48653;51.742;-1.256;2023-05-11T01:00:00;100775.73;;;11.69;52.71
62055;BME280;48653;51.742;-1.256;2023-05-11T01:02:26;100779.34;;;11.84;52.47
62055;BME280;48653;51.742;-1.256;2023-05-11T01:04:51;100778.29;;;11.16;53.23
62055;BME280;48653;51.742;-1.256;2023-05-11T01:07:21;100778.88;;;11.19;53.62
62055;BME280;48653;51.742;-1.256;2023-05-11T01:09:50;100778.95;;;11.86;52.44
62055;BME280;48653;51.742;-1.256;2023-05-11T01:12:12;100779.31;;;11.65;52.99
62055;BME280;48653;51.742;-1.256;2023-05-11T01:14:36;100779.65;;;11.99;52.80
62055;BME280;48653;51.742;-1.256;2023-05-11T01:17:02;100779.79;;;11.83;53.38
62055;BME280;48653;51.742;-1.256;2023-05-11T01:19:33;100780.21;;;11.90;53.22
62055;BME280;48653;51.742;-1.256;2023-05-11T01:21:49;100778.96;;;12.22;52.92
62055;BME280;48653;51.742;-1.256;2023-05-11T01:24:25;100780.71;;;11.47;54.32
62055;BME280;48653;51.742;-1.256;2023-05-11T01:26:48;100780.04;;;11.45;53.92
62055;BME280;48653;51.742;-1.256;2023-05-11T01:29:17;100781.66;;;12.06;53.10
62055;BME280;48653;51.742;-1.256;2023-05-11T01:31:31;100782.65;;;12.27;52.34
62055;BME280;48653;51.742;-1.256;2023-05-11T01:33:58;100786.64;;;12.07;52.61
62055;BME280;48653;51.742;-1.256;2023-05-11T01:36:26;100791.24;;;12.53;51.85
62055;BME280;48653;51.742;-1.256;2023-05-11T01:38:47;100793.06;;;12.30;52.36
62055;BME280;48653;51.742;-1.256;2023-05-11T01:41:15;100794.98;;;12.44;51.92
62055;BME280;48653;51.742;-1.256;2023-05-11T01:43:39;100794.64;;;12.33;51.83
62055;BME280;48653;51.742;-1.256;2023-05-11T01:46:02;100793.86;;;12.17;51.48
62055;BME280;48653;51.742;-1.256;2023-05-11T01:48:31;100797.13;;;12.57;51.84
62055;BME280;48653;51.742;-1.256;2023-05-11T01:50:52;100796.28;;;12.53;51.40
62055;BME280;48653;51.742;-1.256;2023-05-11T01:53:17;100797.16;;;12.21;51.73
62055;BME280;48653;51.742;-1.256;2023-05-11T01:55:44;100799.58;;;12.50;51.57
62055;BME280;48653;51.742;-1.256;2023-05-11T01:58:09;100799.98;;;12.39;51.15
62055;BME280;48653;51.742;-1.256;2023-05-11T02:00:34;100803.57;;;12.40;51.17
62055;BME280;48653;51.742;-1.256;2023-05-11T02:03:00;100803.87;;;12.28;51.00
62055;BME280;48653;51.742;-1.256;2023-05-11T02:05:25;100806.04;;;12.56;51.07
62055;BME280;48653;51.742;-1.256;2023-05-11T02:07:51;100802.80;;;12.63;51.28
62055;BME280;48653;51.742;-1.256;2023-05-11T02:10:16;100805.55;;;12.76;51.67
62055;BME280;48653;51.742;-1.256;2023-05-11T02:12:40;100806.99;;;11.66;53.71
62055;BME280;48653;51.742;-1.256;2023-05-11T02:15:08;100806.90;;;11.92;53.46
62055;BME280;48653;51.742;-1.256;2023-05-11T02:17:32;100813.13;;;11.48;54.24
62055;BME280;48653;51.742;-1.256;2023-05-11T02:19:58;100809.67;;;12.01;53.50
62055;BME280;48653;51.742;-1.256;2023-05-11T02:22:23;100810.26;;;11.93;53.40
62055;BME280;48653;51.742;-1.256;2023-05-11T02:24:48;100814.43;;;12.51;52.16
62055;BME280;48653;51.742;-1.256;2023-05-11T02:27:13;100813.06;;;12.26;52.34
62055;BME280;48653;51.742;-1.256;2023-05-11T02:29:39;100816.62;;;12.50;52.36
62055;BME280;48653;51.742;-1.256;2023-05-11T02:32:08;100814.69;;;12.09;52.42
62055;BME280;48653;51.742;-1.256;2023-05-11T02:34:36;100815.78;;;11.96;53.45
62055;BME280;48653;51.742;-1.256;2023-05-11T02:36:57;100816.28;;;12.26;52.42
62055;BME280;48653;51.742;-1.256;2023-05-11T02:39:21;100820.72;;;11.65;53.84
62055;BME280;48653;51.742;-1.256;2023-05-11T02:41:48;100817.96;;;12.01;53.13
62055;BME280;48653;51.742;-1.256;2023-05-11T02:44:14;100820.83;;;11.96;53.88
62055;BME280;48653;51.742;-1.256;2023-05-11T02:46:37;100820.27;;;11.95;53.71
62055;BME280;48653;51.742;-1.256;2023-05-11T02:49:04;100822.65;;;11.00;55.08
62055;BME280;48653;51.742;-1.256;2023-05-11T02:51:31;100820.74;;;11.32;53.90
62055;BME280;48653;51.742;-1.256;2023-05-11T02:53:54;100820.97;;;12.18;52.98
62055;BME280;48653;51.742;-1.256;2023-05-11T02:56:19;100819.29;;;11.80;53.12
62055;BME280;48653;51.742;-1.256;2023-05-11T02:58:44;100821.15;;;12.55;52.54
62055;BME280;48653;51.742;-1.256;2023-05-11T03:01:09;100819.38;;;12.26;52.30
62055;BME280;48653;51.742;-1.256;2023-05-11T03:03:35;100821.67;;;12.37;51.88
62055;BME280;48653;51.742;-1.256;2023-05-11T03:06:01;100820.14;;;12.27;52.45
62055;BME280;48653;51.742;-1.256;2023-05-11T03:08:26;100820.98;;;12.33;51.83
62055;BME280;48653;51.742;-1.256;2023-05-11T03:10:52;100825.14;;;12.60;51.06
62055;BME280;48653;51.742;-1.256;2023-05-11T03:13:18;100827.40;;;12.28;51.73
62055;BME280;48653;51.742;-1.256;2023-05-11T03:15:43;100825.92;;;11.91;52.15
62055;BME280;48653;51.742;-1.256;2023-05-11T03:18:08;100827.51;;;12.18;51.47
62055;BME280;48653;51.742;-1.256;2023-05-11T03:20:35;100829.65;;;12.52;51.05
62055;BME280;48653;51.742;-1.256;2023-05-11T03:22:59;100829.78;;;12.52;51.20
62055;BME280;48653;51.742;-1.256;2023-05-11T03:25:24;100829.88;;;12.21;51.38
62055;BME280;48653;51.742;-1.256;2023-05-11T03:27:50;100829.98;;;12.52;51.51
62055;BME280;48653;51.742;-1.256;2023-05-11T03:30:16;100826.55;;;12.11;51.57
62055;BME280;48653;51.742;-1.256;2023-05-11T03:32:41;100826.75;;;12.43;51.54
62055;BME280;48653;51.742;-1.256;2023-05-11T03:35:07;100826.33;;;12.63;51.15
62055;BME280;48653;51.742;-1.256;2023-05-11T03:37:32;100825.43;;;12.42;50.73
62055;BME280;48653;51.742;-1.256;2023-05-11T03:42:22;100830.26;;;12.53;50.87
62055;BME280;48653;51.742;-1.256;2023-05-11T03:44:48;100828.05;;;12.16;50.86
62055;BME280;48653;51.742;-1.256;2023-05-11T03:47:14;100824.38;;;12.79;50.83
62055;BME280;48653;51.742;-1.256;2023-05-11T03:49:39;100823.94;;;12.50;51.18
62055;BME280;48653;51.742;-1.256;2023-05-11T03:52:04;100823.36;;;12.11;51.64
62055;BME280;48653;51.742;-1.256;2023-05-11T03:54:29;100822.67;;;11.98;51.90
62055;BME280;48653;51.742;-1.256;2023-05-11T03:56:55;100825.74;;;12.31;51.60
62055;BME280;48653;51.742;-1.256;2023-05-11T03:59:21;100829.01;;;12.50;51.13
62055;BME280;48653;51.742;-1.256;2023-05-11T04:01:46;100831.00;;;12.50;50.90
62055;BME280;48653;51.742;-1.256;2023-05-11T04:04:12;100828.68;;;12.69;51.12
62055;BME280;48653;51.742;-1.256;2023-05-11T04:06:37;100823.99;;;12.23;51.29
62055;BME280;48653;51.742;-1.256;2023-05-11T04:09:03;100822.47;;;12.27;50.76
62055;BME280;48653;51.742;-1.256;2023-05-11T04:11:29;100825.70;;;12.65;50.41
62055;BME280;48653;51.742;-1.256;2023-05-11T04:16:20;100825.50;;;12.34;50.53
62055;BME280;48653;51.742;-1.256;2023-05-11T04:18:45;100822.71;;;12.79;50.38
62055;BME280;48653;51.742;-1.256;2023-05-11T04:26:02;100826.19;;;12.51;50.54
62055;BME280;48653;51.742;-1.256;2023-05-11T04:28:27;100823.23;;;12.14;51.13
62055;BME280;48653;51.742;-1.256;2023-05-11T04:30:52;100825.98;;;12.28;51.14
62055;BME280;48653;51.742;-1.256;2023-05-11T04:33:17;100823.83;;;12.31;50.86
62055;BME280;48653;51.742;-1.256;2023-05-11T04:35:43;100823.02;;;12.37;50.83
62055;BME280;48653;51.742;-1.256;2023-05-11T04:38:08;100823.51;;;12.15;51.24
62055;BME280;48653;51.742;-1.256;2023-05-11T04:40:35;100821.15;;;12.60;50.58
62055;BME280;48653;51.742;-1.256;2023-05-11T04:42:59;100818.74;;;12.20;50.85
62055;BME280;48653;51.742;-1.256;2023-05-11T04:45:25;100824.50;;;12.22;50.63
62055;BME280;48653;51.742;-1.256;2023-05-11T04:47:50;100827.18;;;12.38;50.38
62055;BME280;48653;51.742;-1.256;2023-05-11T04:50:16;100828.52;;;11.89;50.76
62055;BME280;48653;51.742;-1.256;2023-05-11T04:52:42;100831.26;;;12.13;50.71
62055;BME280;48653;51.742;-1.256;2023-05-11T04:55:08;100830.03;;;12.19;50.82
62055;BME280;48653;51.742;-1.256;2023-05-11T04:57:32;100833.13;;;12.80;50.58
62055;BME280;48653;51.742;-1.256;2023-05-11T04:59:58;100838.81;;;12.18;50.93
62055;BME280;48653;51.742;-1.256;2023-05-11T05:02:23;100837.79;;;12.21;50.96
62055;BME280;48653;51.742;-1.256;2023-05-11T05:04:49;100842.09;;;12.35;51.54
62055;BME280;48653;51.742;-1.256;2023-05-11T05:07:14;100841.72;;;12.61;51.56
62055;BME280;48653;51.742;-1.256;2023-05-11T05:14:30;100850.67;;;11.68;53.46
62055;BME280;48653;51.742;-1.256;2023-05-11T05:16:55;100853.16;;;11.80;53.38
62055;BME280;48653;51.742;-1.256;2023-05-11T05:19:20;100848.54;;;12.00;53.22
62055;BME280;48653;51.742;-1.256;2023-05-11T05:21:46;100851.64;;;12.58;52.05
62055;BME280;48653;51.742;-1.256;2023-05-11T05:24:11;100854.21;;;11.69;53.68
62055;BME280;48653;51.742;-1.256;2023-05-11T05:26:36;100858.04;;;11.92;53.35
62055;BME280;48653;51.742;-1.256;2023-05-11T05:29:02;100855.12;;;12.24;52.70
62055;BME280;48653;51.742;-1.256;2023-05-11T05:31:27;100858.76;;;12.44;52.21
62055;BME280;48653;51.742;-1.256;2023-05-11T05:33:53;100860.20;;;12.39;51.74
62055;BME280;48653;51.742;-1.256;2023-05-11T05:36:18;100863.77;;;12.11;52.54
62055;BME280;48653;51.742;-1.256;2023-05-11T05:38:44;100866.63;;;12.04;52.50
62055;BME280;48653;51.742;-1.256;2023-05-11T05:41:10;100865.97;;;12.41;52.68
62055;BME280;48653;51.742;-1.256;2023-05-11T05:43:35;100870.46;;;12.48;52.07
62055;BME280;48653;51.742;-1.256;2023-05-11T05:48:26;100873.34;;;12.44;52.19
62055;BME280;48653;51.742;-1.256;2023-05-11T05:50:52;100872.03;;;12.43;53.03
62055;BME280;48653;51.742;-1.256;2023-05-11T05:53:17;100874.39;;;12.23;53.22
62055;BME280;48653;51.742;-1.256;2023-05-11T05:55:42;100877.95;;;12.50;52.64
62055;BME280;48653;51.742;-1.256;2023-05-11T05:58:08;100879.37;;;12.26;52.87
62055;BME280;48653;51.742;-1.256;2023-05-11T06:00:34;100880.44;;;12.11;53.07
62055;BME280;48653;51.742;-1.256;2023-05-11T06:10:15;100886.23;;;12.37;53.13
62055;BME280;48653;51.742;-1.256;2023-05-11T06:12:40;100889.06;;;12.60;52.39
62055;BME280;48653;51.742;-1.256;2023-05-11T06:15:07;100888.04;;;12.52;52.73
62055;BME280;48653;51.742;-1.256;2023-05-11T06:17:31;100887.05;;;12.42;52.03
62055;BME280;48653;51.742;-1.256;2023-05-11T06:19:56;100890.67;;;12.95;51.87
62055;BME280;48653;51.742;-1.256;2023-05-11T06:22:21;100889.83;;;12.85;51.92
62055;BME280;48653;51.742;-1.256;2023-05-11T06:24:46;100888.59;;;13.61;51.31
62055;BME280;48653;51.742;-1.256;2023-05-11T06:27:11;100891.84;;;12.60;52.32
62055;BME280;48653;51.742;-1.256;2023-05-11T06:29:37;100890.33;;;13.34;51.72
62055;BME280;48653;51.742;-1.256;2023-05-11T06:32:03;100889.06;;;12.36;53.12
62055;BME280;48653;51.742;-1.256;2023-05-11T06:34:28;100890.23;;;12.46;53.18
62055;BME280;48653;51.742;-1.256;2023-05-11T06:36:54;100892.29;;;12.11;54.36
62055;BME280;48653;51.742;-1.256;2023-05-11T06:44:10;100894.90;;;12.19;54.20
62055;BME280;48653;51.742;-1.256;2023-05-11T06:46:36;100901.03;;;12.05;55.25
62055;BME280;48653;51.742;-1.256;2023-05-11T06:49:01;100901.52;;;12.66;53.24
62055;BME280;48653;51.742;-1.256;2023-05-11T06:51:27;100901.31;;;12.45;54.07
62055;BME280;48653;51.742;-1.256;2023-05-11T06:56:17;100903.58;;;12.89;53.11
62055;BME280;48653;51.742;-1.256;2023-05-11T06:58:42;100905.44;;;12.15;54.82
62055;BME280;48653;51.742;-1.256;2023-05-11T07:01:07;100904.37;;;12.20;54.23
62055;BME280;48653;51.742;-1.256;2023-05-11T07:08:23;100903.73;;;13.88;50.98
62055;BME280;48653;51.742;-1.256;2023-05-11T07:13:14;100904.99;;;13.82;49.87
62055;BME280;48653;51.742;-1.256;2023-05-11T07:18:05;100902.30;;;15.29;48.08
62055;BME280;48653;51.742;-1.256;2023-05-11T07:20:30;100905.71;;;14.34;48.89
62055;BME280;48653;51.742;-1.256;2023-05-11T07:22:56;100905.36;;;14.71;48.32
62055;BME280;48653;51.742;-1.256;2023-05-11T07:25:21;100904.42;;;15.21;47.07
62055;BME280;48653;51.742;-1.256;2023-05-11T07:27:47;100901.01;;;14.33;48.15
62055;BME280;48653;51.742;-1.256;2023-05-11T07:30:12;100899.81;;;14.73;48.67
62055;BME280;48653;51.742;-1.256;2023-05-11T07:32:36;100904.52;;;14.95;47.14
62055;BME280;48653;51.742;-1.256;2023-05-11T07:35:02;100903.14;;;14.86;47.78
62055;BME280;48653;51.742;-1.256;2023-05-11T07:37:27;100903.43;;;15.04;47.99
62055;BME280;48653;51.742;-1.256;2023-05-11T07:39:52;100904.49;;;15.24;47.37
62055;BME280;48653;51.742;-1.256;2023-05-11T07:42:17;100905.55;;;15.63;47.13
62055;BME280;48653;51.742;-1.256;2023-05-11T07:47:08;100908.08;;;15.21;47.90
62055;BME280;48653;51.742;-1.256;2023-05-11T07:49:33;100911.95;;;15.59;46.85
62055;BME280;48653;51.742;-1.256;2023-05-11T07:51:59;100910.53;;;15.28;47.67
62055;BME280;48653;51.742;-1.256;2023-05-11T07:54:24;100907.78;;;15.00;47.81
62055;BME280;48653;51.742;-1.256;2023-05-11T07:56:50;100913.11;;;15.16;47.43
62055;BME280;48653;51.742;-1.256;2023-05-11T07:59:15;100911.36;;;15.41;47.12
62055;BME280;48653;51.742;-1.256;2023-05-11T08:01:40;100911.12;;;15.85;46.15
62055;BME280;48653;51.742;-1.256;2023-05-11T08:04:05;100912.05;;;14.77;47.14
62055;BME280;48653;51.742;-1.256;2023-05-11T08:06:30;100912.50;;;15.41;47.07
62055;BME280;48653;51.742;-1.256;2023-05-11T08:08:55;100910.47;;;16.37;46.15
62055;BME280;48653;51.742;-1.256;2023-05-11T08:11:21;100910.67;;;16.54;45.55
62055;BME280;48653;51.742;-1.256;2023-05-11T08:13:46;100914.42;;;16.37;45.80
62055;BME280;48653;51.742;-1.256;2023-05-11T08:16:11;100914.23;;;16.47;45.65
62055;BME280;48653;51.742;-1.256;2023-05-11T08:18:36;100912.95;;;16.63;45.12
62055;BME280;48653;51.742;-1.256;2023-05-11T08:21:02;100914.50;;;16.23;45.37
62055;BME280;48653;51.742;-1.256;2023-05-11T08:23:27;100915.40;;;16.60;44.34
62055;BME280;48653;51.742;-1.256;2023-05-11T08:28:17;100919.10;;;16.78;43.89
62055;BME280;48653;51.742;-1.256;2023-05-11T08:30:43;100919.24;;;16.55;44.50
62055;BME280;48653;51.742;-1.256;2023-05-11T08:33:07;100923.18;;;16.93;44.00
62055;BME280;48653;51.742;-1.256;2023-05-11T08:35:33;100919.51;;;17.10;43.95
62055;BME280;48653;51.742;-1.256;2023-05-11T08:37:58;100925.46;;;16.66;45.85
62055;BME280;48653;51.742;-1.256;2023-05-11T08:40:26;100923.72;;;16.42;45.32
62055;BME280;48653;51.742;-1.256;2023-05-11T08:42:52;100921.56;;;15.83;45.65
62055;BME280;48653;51.742;-1.256;2023-05-11T08:45:15;100928.20;;;16.22;45.04
62055;BME280;48653;51.742;-1.256;2023-05-11T08:47:40;100927.02;;;16.31;45.33
62055;BME280;48653;51.742;-1.256;2023-05-11T08:50:05;100927.12;;;16.81;43.94
62055;BME280;48653;51.742;-1.256;2023-05-11T08:52:30;100926.79;;;16.58;44.22
62055;BME280;48653;51.742;-1.256;2023-05-11T08:54:55;100928.86;;;16.46;43.86
62055;BME280;48653;51.742;-1.256;2023-05-11T08:57:20;100925.68;;;17.08;43.11
62055;BME280;48653;51.742;-1.256;2023-05-11T08:59:45;100926.25;;;16.90;43.22
62055;BME280;48653;51.742;-1.256;2023-05-11T09:02:15;100924.39;;;17.25;42.30
62055;BME280;48653;51.742;-1.256;2023-05-11T09:04:36;100924.07;;;17.33;41.35
62055;BME280;48653;51.742;-1.256;2023-05-11T09:07:01;100931.09;;;16.70;41.43
62055;BME280;48653;51.742;-1.256;2023-05-11T09:09:25;100927.55;;;16.62;41.82
62055;BME280;48653;51.742;-1.256;2023-05-11T09:11:53;100927.63;;;17.03;42.13
62055;BME280;48653;51.742;-1.256;2023-05-11T09:14:16;100928.08;;;17.40;41.31
62055;BME280;48653;51.742;-1.256;2023-05-11T09:16:41;100930.65;;;17.06;41.54
62055;BME280;48653;51.742;-1.256;2023-05-11T09:19:09;100932.47;;;17.37;41.50
62055;BME280;48653;51.742;-1.256;2023-05-11T09:21:32;100931.63;;;16.83;42.02
62055;BME280;48653;51.742;-1.256;2023-05-11T09:23:57;100932.45;;;17.13;42.18
62055;BME280;48653;51.742;-1.256;2023-05-11T09:26:21;100932.95;;;17.41;41.55
62055;BME280;48653;51.742;-1.256;2023-05-11T09:28:48;100933.53;;;17.32;41.18
62055;BME280;48653;51.742;-1.256;2023-05-11T09:31:11;100930.37;;;17.20;40.69
62055;BME280;48653;51.742;-1.256;2023-05-11T09:33:36;100929.62;;;17.63;39.74
62055;BME280;48653;51.742;-1.256;2023-05-11T09:36:05;100929.70;;;17.61;39.86
62055;BME280;48653;51.742;-1.256;2023-05-11T09:38:26;100928.52;;;17.50;40.42
62055;BME280;48653;51.742;-1.256;2023-05-11T09:40:53;100929.46;;;17.75;39.66
62055;BME280;48653;51.742;-1.256;2023-05-11T09:43:19;100929.16;;;17.98;40.23
62055;BME280;48653;51.742;-1.256;2023-05-11T09:45:43;100929.08;;;17.67;39.60
62055;BME280;48653;51.742;-1.256;2023-05-11T09:48:13;100927.54;;;18.00;39.53
62055;BME280;48653;51.742;-1.256;2023-05-11T09:50:32;100927.56;;;18.05;39.19
62055;BME280;48653;51.742;-1.256;2023-05-11T09:52:57;100927.92;;;17.55;40.21
62055;BME280;48653;51.742;-1.256;2023-05-11T09:55:22;100923.62;;;18.24;40.89
62055;BME280;48653;51.742;-1.256;2023-05-11T09:57:52;100925.60;;;19.14;39.00
62055;BME280;48653;51.742;-1.256;2023-05-11T10:00:14;100925.00;;;19.72;37.98
62055;BME280;48653;51.742;-1.256;2023-05-11T10:02:37;100924.55;;;20.24;36.44
62055;BME280;48653;51.742;-1.256;2023-05-11T10:05:10;100923.97;;;20.82;36.16
62055;BME280;48653;51.742;-1.256;2023-05-11T10:07:30;100921.44;;;21.86;35.53
62055;BME280;48653;51.742;-1.256;2023-05-11T10:09:54;100915.26;;;22.73;34.77
62055;BME280;48653;51.742;-1.256;2023-05-11T10:12:20;100916.82;;;23.00;33.16
62055;BME280;48653;51.742;-1.256;2023-05-11T10:14:42;100913.95;;;22.83;32.53
62055;BME280;48653;51.742;-1.256;2023-05-11T10:17:10;100916.03;;;23.06;33.90
62055;BME280;48653;51.742;-1.256;2023-05-11T10:19:32;100911.46;;;24.09;31.71
62055;BME280;48653;51.742;-1.256;2023-05-11T10:21:58;100913.19;;;24.76;31.06
62055;BME280;48653;51.742;-1.256;2023-05-11T10:24:22;100909.93;;;24.66;30.13
62055;BME280;48653;51.742;-1.256;2023-05-11T10:26:49;100906.87;;;22.03;31.17
62055;BME280;48653;51.742;-1.256;2023-05-11T10:29:13;100906.36;;;22.39;31.08
62055;BME280;48653;51.742;-1.256;2023-05-11T10:31:38;100908.28;;;22.87;32.13
62055;BME280;48653;51.742;-1.256;2023-05-11T10:34:03;100906.79;;;21.67;31.46
62055;BME280;48653;51.742;-1.256;2023-05-11T10:36:28;100907.00;;;22.66;32.24
62055;BME280;48653;51.742;-1.256;2023-05-11T10:38:53;100902.30;;;22.68;30.97
62055;BME280;48653;51.742;-1.256;2023-05-11T10:41:35;100902.45;;;23.43;30.44
62055;BME280;48653;51.742;-1.256;2023-05-11T10:43:59;100906.91;;;22.80;29.93
62055;BME280;48653;51.742;-1.256;2023-05-11T10:46:19;100906.40;;;22.25;29.50
62055;BME280;48653;51.742;-1.256;2023-05-11T10:48:47;100907.52;;;22.39;30.38
62055;BME280;48653;51.742;-1.256;2023-05-11T10:51:17;100905.91;;;22.00;32.10
62055;BME280;48653;51.742;-1.256;2023-05-11T10:53:35;100903.37;;;22.46;30.34
62055;BME280;48653;51.742;-1.256;2023-05-11T10:56:02;100897.92;;;22.89;29.43
62055;BME280;48653;51.742;-1.256;2023-05-11T10:58:15;100902.54;;;23.73;30.82
62055;BME280;48653;51.742;-1.256;2023-05-11T11:03:10;100901.58;;;24.07;30.93
62055;BME280;48653;51.742;-1.256;2023-05-11T11:05:32;100899.77;;;23.43;29.54
62055;BME280;48653;51.742;-1.256;2023-05-11T11:07:57;100897.65;;;23.07;30.90
62055;BME280;48653;51.742;-1.256;2023-05-11T11:10:29;100892.63;;;24.54;29.25
62055;BME280;48653;51.742;-1.256;2023-05-11T11:15:09;100886.79;;;22.71;30.65
62055;BME280;48653;51.742;-1.256;2023-05-11T11:17:35;100890.96;;;22.13;30.55
62055;BME280;48653;51.742;-1.256;2023-05-11T11:19:59;100893.84;;;20.99;31.92
62055;BME280;48653;51.742;-1.256;2023-05-11T11:24:48;100889.05;;;22.30;30.24
62055;BME280;48653;51.742;-1.256;2023-05-11T11:27:14;100887.15;;;22.54;29.73
62055;BME280;48653;51.742;-1.256;2023-05-11T11:29:39;100885.25;;;23.14;28.84
62055;BME280;48653;51.742;-1.256;2023-05-11T11:34:34;100877.85;;;22.51;29.38
62055;BME280;48653;51.742;-1.256;2023-05-11T11:37:02;100885.83;;;20.60;29.78
62055;BME280;48653;51.742;-1.256;2023-05-11T11:39:20;100886.19;;;20.03;30.87
62055;BME280;48653;51.742;-1.256;2023-05-11T11:41:44;100885.73;;;20.29;31.32
62055;BME280;48653;51.742;-1.256;2023-05-11T11:44:19;100887.68;;;19.76;31.82
62055;BME280;48653;51.742;-1.256;2023-05-11T11:46:34;100885.47;;;20.92;31.01
62055;BME280;48653;51.742;-1.256;2023-05-11T11:49:06;100886.31;;;20.28;30.31
62055;BME280;48653;51.742;-1.256;2023-05-11T11:51:31;100884.23;;;20.49;31.23
62055;BME280;48653;51.742;-1.256;2023-05-11T11:53:57;100880.15;;;20.89;30.93
62055;BME280;48653;51.742;-1.256;2023-05-11T11:58:56;100877.48;;;20.83;29.61
62055;BME280;48653;51.742;-1.256;2023-05-11T12:01:06;100876.08;;;21.14;29.34
62055;BME280;48653;51.742;-1.256;2023-05-11T12:03:31;100882.40;;;20.91;29.76
62055;BME280;48653;51.742;-1.256;2023-05-11T12:06:00;100883.72;;;21.06;28.59
62055;BME280;48653;51.742;-1.256;2023-05-11T12:08:21;100877.26;;;21.67;28.95
62055;BME280;48653;51.742;-1.256;2023-05-11T12:10:52;100872.17;;;22.46;26.45
62055;BME280;48653;51.742;-1.256;2023-05-11T12:13:10;100874.44;;;21.58;26.47
62055;BME280;48653;51.742;-1.256;2023-05-11T12:15:35;100874.05;;;21.82;27.02
62055;BME280;48653;51.742;-1.256;2023-05-11T12:18:01;100870.08;;;22.47;27.67
62055;BME280;48653;51.742;-1.256;2023-05-11T12:20:25;100866.67;;;23.24;27.24
62055;BME280;48653;51.742;-1.256;2023-05-11T12:22:50;100870.26;;;24.55;27.61
62055;BME280;48653;51.742;-1.256;2023-05-11T12:25:16;100864.31;;;24.05;25.84
62055;BME280;48653;51.742;-1.256;2023-05-11T12:27:47;100864.33;;;23.66;25.86
62055;BME280;48653;51.742;-1.256;2023-05-11T12:30:07;100858.32;;;22.98;26.78
62055;BME280;48653;51.742;-1.256;2023-05-11T12:32:30;100857.95;;;23.90;25.19
62055;BME280;48653;51.742;-1.256;2023-05-11T12:34:58;100868.30;;;24.29;24.91
62055;BME280;48653;51.742;-1.256;2023-05-11T12:37:21;100864.35;;;23.84;25.39
62055;BME280;48653;51.742;-1.256;2023-05-11T12:39:45;100871.60;;;24.50;25.62
62055;BME280;48653;51.742;-1.256;2023-05-11T12:42:17;100864.26;;;23.93;25.58
62055;BME280;48653;51.742;-1.256;2023-05-11T12:44:36;100862.20;;;23.82;25.86
62055;BME280;48653;51.742;-1.256;2023-05-11T12:47:01;100868.38;;;24.17;26.33
62055;BME280;48653;51.742;-1.256;2023-05-11T12:49:26;100868.29;;;23.99;26.56
62055;BME280;48653;51.742;-1.256;2023-05-11T12:54:27;100864.57;;;25.43;25.73
62055;BME280;48653;51.742;-1.256;2023-05-11T12:56:44;100864.52;;;23.17;24.03
62055;BME280;48653;51.742;-1.256;2023-05-11T13:01:31;100868.24;;;24.43;26.25
62055;BME280;48653;51.742;-1.256;2023-05-11T13:03:56;100859.48;;;22.33;25.84
62055;BME280;48653;51.742;-1.256;2023-05-11T13:06:22;100860.13;;;24.18;27.00
62055;BME280;48653;51.742;-1.256;2023-05-11T13:08:47;100856.16;;;23.82;25.24
62055;BME280;48653;51.742;-1.256;2023-05-11T13:11:18;100859.87;;;23.90;26.70
62055;BME280;48653;51.742;-1.256;2023-05-11T13:13:37;100862.99;;;23.47;26.15
62055;BME280;48653;51.742;-1.256;2023-05-11T13:16:02;100866.40;;;23.50;26.09
62055;BME280;48653;51.742;-1.256;2023-05-11T13:18:26;100867.02;;;22.83;27.27
62055;BME280;48653;51.742;-1.256;2023-05-11T13:21:05;100868.53;;;21.26;28.97
62055;BME280;48653;51.742;-1.256;2023-05-11T13:23:20;100870.36;;;20.50;32.08
62055;BME280;48653;51.742;-1.256;2023-05-11T13:25:51;100868.24;;;21.71;31.32
62055;BME280;48653;51.742;-1.256;2023-05-11T13:28:06;100874.36;;;21.21;30.52
62055;BME280;48653;51.742;-1.256;2023-05-11T13:30:31;100882.00;;;20.64;31.09
62055;BME280;48653;51.742;-1.256;2023-05-11T13:32:56;100884.12;;;20.42;32.21
62055;BME280;48653;51.742;-1.256;2023-05-11T13:35:22;100881.76;;;21.11;31.67
62055;BME280;48653;51.742;-1.256;2023-05-11T13:37:47;100885.75;;;20.57;32.60